Time;durP1;ratioP1;P1;durP2;ratioP2;P2;SDS_P1;SDS_P2;PMS_P1;PMS_P2;Temp;Humidity;BMP_temperature;BMP_pressure;BME280_temperature;BME280_humidity;BME280_pressure;Samples;Min_cycle;Max_cycle;Signal;HPM_P1;HPM_P2
2022/07/17 00:00:25;;;;;;;7.50;6.90;;;;;;;18.74;51.51;156180.09;4975661;28;20556;-75
2022/07/17 00:02:52;;;;;;;7.97;7.27;;;;;;;18.71;51.81;156171.00;4974464;28;20442;-75
2022/07/17 00:05:19;;;;;;;8.33;6.90;;;;;;;18.65;51.83;156155.38;4974360;28;20457;-76
2022/07/17 00:07:48;;;;;;;8.47;7.70;;;;;;;18.61;52.04;156144.97;4975538;28;20537;-76
2022/07/17 00:10:16;;;;;;;8.90;8.10;;;;;;;18.57;52.35;156134.53;4956221;28;21005;-75
2022/07/17 00:12:43;;;;;;;8.00;7.20;;;;;;;18.51;52.70;156118.88;4954960;28;20444;-75
2022/07/17 00:15:10;;;;;;;8.00;7.40;;;;;;;18.49;52.69;156114.97;4983046;28;20453;-76
2022/07/17 00:17:37;;;;;;;7.90;7.13;;;;;;;18.45;52.68;156103.22;4989076;28;20466;-75
2022/07/17 00:20:05;;;;;;;11.77;10.60;;;;;;;18.41;52.95;156092.78;4989787;28;20459;-75
2022/07/17 00:22:31;;;;;;;12.07;10.87;;;;;;;18.38;52.98;156086.28;4990153;28;20882;-75
2022/07/17 00:24:58;;;;;;;8.93;8.13;;;;;;;18.35;52.83;156078.44;4990646;28;20549;-75
2022/07/17 00:27:26;;;;;;;4.77;4.43;;;;;;;18.48;52.46;156112.38;4972479;28;20463;-75
2022/07/17 00:29:53;;;;;;;5.33;4.87;;;;;;;18.61;51.83;156146.22;4974766;28;20455;-75
2022/07/17 00:32:19;;;;;;;5.60;4.97;;;;;;;18.71;51.73;156172.31;4989670;28;20453;-76
2022/07/17 00:34:46;;;;;;;4.43;4.07;;;;;;;18.77;51.54;156186.66;4989754;28;20451;-76
2022/07/17 00:37:13;;;;;;;4.73;4.33;;;;;;;18.81;51.10;156197.06;4988324;28;20474;-75
2022/07/17 00:39:40;;;;;;;5.27;4.77;;;;;;;18.83;51.26;156202.25;4989458;28;20860;-75
2022/07/17 00:42:10;;;;;;;5.20;4.70;;;;;;;18.77;51.33;156187.91;4989680;28;20439;-75
2022/07/17 00:44:41;;;;;;;6.33;4.30;;;;;;;18.73;51.14;156177.53;4974586;28;20437;-75
2022/07/17 00:47:12;;;;;;;5.30;4.10;;;;;;;18.68;51.41;156163.19;4973078;28;20524;-76
2022/07/17 00:49:39;;;;;;;4.87;4.43;;;;;;;18.60;51.36;156143.66;4989774;28;20954;-76
2022/07/17 00:52:06;;;;;;;7.03;5.00;;;;;;;18.52;51.48;156121.50;4989799;28;20431;-76
2022/07/17 00:54:36;;;;;;;6.27;5.77;;;;;;;18.43;51.62;156099.28;4989289;28;20485;-75
2022/07/17 00:57:05;;;;;;;6.40;5.80;;;;;;;18.34;52.16;156074.56;4973031;28;20463;-76
2022/07/17 00:59:34;;;;;;;6.80;6.20;;;;;;;18.27;52.62;156057.59;4974213;28;20473;-75
2022/07/17 01:02:04;;;;;;;8.87;8.07;;;;;;;18.18;52.80;156034.19;4974421;28;20450;-75
2022/07/17 01:04:30;;;;;;;10.80;9.50;;;;;;;18.12;53.15;156019.88;4972682;28;20437;-75
2022/07/17 01:06:58;;;;;;;9.00;8.23;;;;;;;18.05;53.46;156001.66;4973903;28;20453;-75
2022/07/17 01:09:25;;;;;;;8.20;7.50;;;;;;;17.98;53.67;155983.38;4975841;28;20533;-75
2022/07/17 01:11:52;;;;;;;9.37;8.57;;;;;;;17.94;54.01;155973.00;4989442;28;20481;-75
2022/07/17 01:14:19;;;;;;;9.20;8.40;;;;;;;17.92;54.01;155966.50;4988606;28;20439;-75
2022/07/17 01:16:45;;;;;;;7.57;6.77;;;;;;;17.87;54.02;155954.72;4973588;28;20454;-76
2022/07/17 01:19:13;;;;;;;5.83;5.23;;;;;;;17.84;54.33;155946.97;4990709;28;20503;-75
2022/07/17 01:21:43;;;;;;;5.90;5.30;;;;;;;17.78;54.26;155930.00;4974951;28;20498;-75
2022/07/17 01:24:10;;;;;;;5.90;5.10;;;;;;;17.74;54.54;155920.88;4954823;29;20535;-75
2022/07/17 01:26:37;;;;;;;4.83;4.33;;;;;;;17.71;54.46;155911.81;4972187;28;20489;-75
2022/07/17 01:29:04;;;;;;;5.57;5.07;;;;;;;17.68;54.57;155905.28;4992026;28;20536;-75
2022/07/17 01:31:30;;;;;;;5.40;4.40;;;;;;;17.62;54.51;155890.97;4993653;28;20477;-75
2022/07/17 01:33:57;;;;;;;4.53;4.13;;;;;;;17.62;55.11;155889.66;4992921;28;20596;-76
2022/07/17 01:36:24;;;;;;;4.40;4.00;;;;;;;17.60;55.44;155884.47;4994254;28;20432;-75
2022/07/17 01:38:54;;;;;;;4.70;4.30;;;;;;;17.58;55.78;155880.53;4991247;28;20471;-75
2022/07/17 01:41:21;;;;;;;5.33;4.60;;;;;;;17.51;55.66;155860.97;4975163;28;20481;-75
2022/07/17 01:43:48;;;;;;;5.20;4.80;;;;;;;17.49;56.10;155855.78;4974909;28;20511;-75
2022/07/17 01:46:15;;;;;;;4.37;4.00;;;;;;;17.44;55.86;155842.75;4992923;28;20861;-75
2022/07/17 01:48:42;;;;;;;4.50;4.10;;;;;;;17.43;55.99;155840.13;4993260;28;20521;-75
2022/07/17 01:51:09;;;;;;;4.43;4.13;;;;;;;17.43;55.74;155840.13;4991604;28;20469;-75
2022/07/17 01:53:35;;;;;;;5.47;4.77;;;;;;;17.44;55.63;155842.75;4986103;28;20503;-76
2022/07/17 01:56:04;;;;;;;5.33;4.83;;;;;;;17.48;55.92;155853.16;4976279;28;20932;-76
2022/07/17 01:58:31;;;;;;;5.80;5.03;;;;;;;17.52;56.25;155863.59;4974663;28;20469;-75
2022/07/17 02:00:58;;;;;;;7.07;5.83;;;;;;;17.48;56.73;155854.47;4991801;28;20978;-75
2022/07/17 02:03:24;;;;;;;5.53;5.03;;;;;;;17.45;56.56;155845.34;5005633;28;20525;-75
2022/07/17 02:05:51;;;;;;;6.43;5.83;;;;;;;17.42;57.40;155838.81;4992699;28;20537;-75
2022/07/17 02:08:18;;;;;;;6.93;6.00;;;;;;;17.44;57.49;155842.75;4975176;28;21038;-76
2022/07/17 02:10:45;;;;;;;6.20;5.70;;;;;;;17.37;57.71;155825.81;4992725;28;20446;-76
2022/07/17 02:13:13;;;;;;;7.53;6.10;;;;;;;17.38;57.96;155827.13;4974553;28;20983;-75
2022/07/17 02:15:40;;;;;;;6.20;5.60;;;;;;;17.32;58.20;155811.50;4991320;28;20492;-75
2022/07/17 02:18:06;;;;;;;6.80;6.10;;;;;;;17.31;58.49;155808.91;4991262;28;20555;-75
2022/07/17 02:20:33;;;;;;;7.03;6.33;;;;;;;17.31;58.42;155810.22;4991281;28;20807;-76
2022/07/17 02:23:00;;;;;;;7.07;6.47;;;;;;;17.28;58.49;155801.09;4990706;28;20535;-76
2022/07/17 02:25:27;;;;;;;7.77;6.00;;;;;;;17.25;58.40;155793.28;4990686;28;20535;-76
2022/07/17 02:27:56;;;;;;;6.50;5.90;;;;;;;17.24;58.97;155790.66;4974956;28;20524;-75
2022/07/17 02:30:24;;;;;;;6.57;5.97;;;;;;;17.26;58.67;155797.16;4974987;28;20456;-76
2022/07/17 02:32:51;;;;;;;7.50;6.80;;;;;;;17.19;59.60;155778.97;4991173;28;20544;-76
2022/07/17 02:35:17;;;;;;;6.47;5.87;;;;;;;17.14;59.31;155764.66;4991757;28;20557;-75
2022/07/17 02:37:45;;;;;;;7.03;6.33;;;;;;;17.07;59.14;155746.44;4975006;28;21013;-75
2022/07/17 02:40:13;;;;;;;6.43;5.83;;;;;;;17.03;58.62;155738.63;4974886;28;20442;-75
2022/07/17 02:42:40;;;;;;;7.03;6.40;;;;;;;17.02;59.19;155736.00;4992279;28;20445;-75
2022/07/17 02:45:08;;;;;;;7.00;6.30;;;;;;;17.03;58.97;155738.63;4975169;28;20943;-75
2022/07/17 02:47:37;;;;;;;8.70;5.57;;;;;;;17.01;58.97;155733.44;4992967;28;20536;-76
2022/07/17 02:50:06;;;;;;;5.90;5.20;;;;;;;16.96;58.88;155720.44;4989928;28;20448;-75
2022/07/17 02:52:33;;;;;;;7.30;6.00;;;;;;;16.96;58.53;155720.44;4974674;28;21022;-75
2022/07/17 02:54:59;;;;;;;7.03;6.33;;;;;;;16.95;59.59;155717.81;4991874;28;20444;-75
2022/07/17 02:57:26;;;;;;;6.73;6.13;;;;;;;16.91;59.47;155707.44;4974489;28;21058;-75
2022/07/17 02:59:53;;;;;;;6.97;6.27;;;;;;;16.92;59.74;155710.00;4974597;28;21039;-75
2022/07/17 03:02:20;;;;;;;6.77;6.17;;;;;;;16.91;59.55;155707.44;4974078;28;21011;-76
2022/07/17 03:04:47;;;;;;;7.10;6.40;;;;;;;16.93;59.82;155712.63;4974600;28;20808;-75
2022/07/17 03:07:14;;;;;;;7.00;6.30;;;;;;;16.90;59.90;155704.81;4996224;28;20426;-75
2022/07/17 03:09:41;;;;;;;6.47;5.87;;;;;;;16.88;59.33;155698.31;4995616;28;20442;-76
2022/07/17 03:12:08;;;;;;;6.80;6.20;;;;;;;16.72;59.39;155656.66;4995989;28;20469;-75
2022/07/17 03:14:34;;;;;;;7.50;5.70;;;;;;;16.64;59.43;155635.84;4995095;28;20443;-75
2022/07/17 03:17:01;;;;;;;7.10;6.30;;;;;;;16.57;59.55;155618.97;4996027;28;20430;-75
2022/07/17 03:19:28;;;;;;;6.80;6.20;;;;;;;16.50;60.14;155599.38;4996144;28;20457;-75
2022/07/17 03:21:56;;;;;;;5.97;5.47;;;;;;;16.46;60.59;155590.28;4994994;28;20476;-76
2022/07/17 03:24:22;;;;;;;6.40;5.80;;;;;;;16.38;60.44;155569.47;4993806;28;20438;-75
2022/07/17 03:26:49;;;;;;;7.13;6.07;;;;;;;16.36;60.60;155565.56;4993520;28;20600;-75
2022/07/17 03:29:17;;;;;;;6.73;5.53;;;;;;;16.31;61.13;155552.56;4994034;28;20540;-76
2022/07/17 03:31:43;;;;;;;5.93;5.27;;;;;;;16.28;60.71;155543.47;4977121;28;20929;-75
2022/07/17 03:34:10;;;;;;;7.20;5.60;;;;;;;16.25;60.75;155536.97;4994316;28;20432;-75
2022/07/17 03:36:37;;;;;;;6.20;5.30;;;;;;;16.23;61.18;155530.47;4992764;28;20481;-76
2022/07/17 03:39:05;;;;;;;6.77;5.90;;;;;;;16.19;61.47;155521.38;4992166;28;20576;-75
2022/07/17 03:41:32;;;;;;;6.67;5.70;;;;;;;16.14;61.51;155508.38;4974816;28;20973;-76
2022/07/17 03:43:59;;;;;;;6.40;5.90;;;;;;;16.17;61.41;155514.88;4974569;28;20430;-76
2022/07/17 03:46:26;;;;;;;6.03;5.43;;;;;;;16.14;61.31;155507.06;4990315;28;20966;-75
2022/07/17 03:48:52;;;;;;;6.17;5.60;;;;;;;16.16;60.75;155513.53;5001259;28;20449;-75
2022/07/17 03:51:19;;;;;;;6.27;5.70;;;;;;;16.11;61.25;155499.25;4977980;28;20536;-75
2022/07/17 03:53:46;;;;;;;6.00;5.50;;;;;;;16.12;61.03;155501.88;4960217;28;20532;-75
2022/07/17 03:56:14;;;;;;;6.20;5.60;;;;;;;16.13;61.22;155504.44;4976157;28;20552;-75
2022/07/17 03:58:41;;;;;;;7.57;6.00;;;;;;;16.15;61.01;155509.66;4975918;28;20474;-75
2022/07/17 04:01:08;;;;;;;6.90;6.27;;;;;;;16.17;60.98;155516.16;4998563;28;20559;-75
2022/07/17 04:03:34;;;;;;;7.47;6.67;;;;;;;16.27;62.43;155542.16;4992464;28;20434;-75
2022/07/17 04:06:01;;;;;;;6.60;5.97;;;;;;;16.42;62.77;155579.88;4992304;28;20480;-75
2022/07/17 04:08:28;;;;;;;8.17;5.77;;;;;;;16.49;62.66;155598.09;4993283;28;20532;-75
2022/07/17 04:10:55;;;;;;;8.30;6.00;;;;;;;16.44;62.76;155586.38;4992064;28;20445;-75
2022/07/17 04:13:23;;;;;;;7.13;6.43;;;;;;;16.42;63.96;155579.88;4976136;28;20453;-75
2022/07/17 04:15:59;;;;;;;7.10;6.40;;;;;;;16.38;64.48;155569.47;4993229;28;20471;-75
2022/07/17 04:18:27;;;;;;;6.40;5.87;;;;;;;16.29;64.86;155546.06;4975520;28;20465;-75
2022/07/17 04:21:01;;;;;;;9.90;6.90;;;;;;;16.25;64.98;155535.66;5000717;28;20456;-75
2022/07/17 04:23:28;;;;;;;7.03;6.43;;;;;;;16.26;65.29;155538.25;5013521;28;20456;-76
2022/07/17 04:25:55;;;;;;;7.50;6.80;;;;;;;16.37;65.63;155566.84;4992274;28;20460;-75
2022/07/17 04:28:24;;;;;;;9.43;8.30;;;;;;;16.50;66.31;155600.66;4957576;28;1171131;-76
2022/07/17 04:30:50;;;;;;;9.73;8.80;;;;;;;16.61;66.21;155629.34;4977620;28;20743;-76
2022/07/17 04:33:17;;;;;;;8.30;7.60;;;;;;;16.67;66.32;155644.97;5006770;28;21040;-75
2022/07/17 04:35:44;;;;;;;13.50;7.80;;;;;;;16.79;65.80;155676.19;4976692;28;20445;-75
2022/07/17 04:38:11;;;;;;;8.73;7.10;;;;;;;17.07;65.45;155746.44;4976568;28;20458;-76
2022/07/17 04:40:39;;;;;;;8.53;7.73;;;;;;;17.43;64.24;155840.13;4992742;28;20454;-75
2022/07/17 04:43:06;;;;;;;7.60;6.90;;;;;;;17.82;62.95;155940.44;5003502;28;20499;-75
2022/07/17 04:45:35;;;;;;;8.40;7.60;;;;;;;18.18;61.94;156035.50;4988837;28;20551;-75
2022/07/17 04:48:02;;;;;;;8.87;8.07;;;;;;;18.44;60.87;156100.59;4994128;28;21028;-75
2022/07/17 04:50:29;;;;;;;8.30;7.43;;;;;;;18.65;60.29;156155.38;4976789;28;20575;-75
2022/07/17 04:52:56;;;;;;;8.43;7.23;;;;;;;18.92;59.54;156225.72;4974453;28;20481;-76
2022/07/17 04:55:23;;;;;;;8.40;7.70;;;;;;;19.21;58.54;156300.00;4979724;28;20453;-75
2022/07/17 04:57:50;;;;;;;8.00;7.30;;;;;;;19.29;58.25;156322.16;4976402;28;20426;-75
2022/07/17 05:00:17;;;;;;;8.50;7.80;;;;;;;19.42;57.39;156356.09;4994139;28;20448;-76
2022/07/17 05:02:45;;;;;;;7.87;7.07;;;;;;;19.80;56.98;156452.59;4993951;28;20521;-76
2022/07/17 05:05:11;;;;;;;8.23;7.30;;;;;;;19.99;56.47;156503.41;4993544;28;20527;-76
2022/07/17 05:07:38;;;;;;;8.20;7.20;;;;;;;19.93;55.93;156486.47;4993833;28;20438;-75
2022/07/17 05:10:06;;;;;;;8.67;7.63;;;;;;;20.05;56.02;156517.75;4976480;28;20478;-75
2022/07/17 05:12:32;;;;;;;7.87;7.07;;;;;;;20.25;55.29;156570.00;4992439;28;20448;-76
2022/07/17 05:14:59;;;;;;;9.50;7.60;;;;;;;20.14;55.49;156541.25;4978650;28;20487;-76
2022/07/17 05:17:26;;;;;;;9.03;7.60;;;;;;;20.11;55.56;156533.41;4993585;28;20839;-76
2022/07/17 05:19:55;;;;;;;8.03;7.33;;;;;;;20.23;55.40;156564.69;4979510;28;20550;-75
2022/07/17 05:22:21;;;;;;;10.73;8.13;;;;;;;20.39;55.22;156606.47;4993907;28;21000;-75
2022/07/17 05:24:48;;;;;;;7.73;7.03;;;;;;;20.64;54.49;156671.72;4975895;28;20500;-76
2022/07/17 05:27:15;;;;;;;8.30;7.60;;;;;;;20.69;53.74;156683.47;5006104;28;20531;-76
2022/07/17 05:29:41;;;;;;;8.40;7.67;;;;;;;20.74;52.92;156695.19;4993279;28;20457;-76
2022/07/17 05:32:08;;;;;;;8.00;7.30;;;;;;;21.09;52.68;156786.59;4993573;28;20440;-76
2022/07/17 05:34:35;;;;;;;8.07;7.37;;;;;;;21.31;51.80;156844.03;4991872;28;20488;-76
2022/07/17 05:37:03;;;;;;;6.93;6.30;;;;;;;21.33;50.97;156849.25;4992932;28;20446;-76
2022/07/17 05:39:30;;;;;;;8.40;7.50;;;;;;;21.46;51.00;156881.88;4992722;28;20505;-76
2022/07/17 05:41:56;;;;;;;8.00;7.30;;;;;;;21.60;50.94;156919.75;4991380;28;20484;-76
2022/07/17 05:44:23;;;;;;;7.57;6.87;;;;;;;21.66;50.49;156934.06;4991541;28;20501;-76
2022/07/17 05:46:50;;;;;;;7.33;6.60;;;;;;;21.97;50.70;157013.78;4993780;28;20872;-76
2022/07/17 05:49:17;;;;;;;7.33;6.63;;;;;;;22.28;48.40;157094.75;4992743;28;20461;-76
2022/07/17 05:51:43;;;;;;;7.60;6.90;;;;;;;22.29;49.06;157097.38;5002186;28;20453;-77
2022/07/17 05:54:12;;;;;;;8.20;6.70;;;;;;;22.54;48.47;157162.66;4979996;28;20768;-76
2022/07/17 05:56:38;;;;;;;7.70;7.10;;;;;;;22.61;48.18;157180.94;5009805;28;20526;-77
2022/07/17 05:59:05;;;;;;;7.30;6.70;;;;;;;22.61;47.68;157180.94;5005394;28;20564;-76
2022/07/17 06:01:32;;;;;;;6.97;6.47;;;;;;;22.91;46.88;157258.06;4991989;28;20600;-77
2022/07/17 06:03:58;;;;;;;7.27;6.57;;;;;;;22.85;46.58;157242.38;4974403;28;20430;-76
2022/07/17 06:06:41;;;;;;;6.80;6.17;;;;;;;22.52;46.85;157157.44;4993112;28;20529;-76
2022/07/17 06:09:08;;;;;;;7.50;6.67;;;;;;;22.42;47.74;157131.31;4975039;28;20525;-77
2022/07/17 06:11:36;;;;;;;5.90;5.50;;;;;;;22.92;47.05;157262.03;4974623;28;20556;-77
2022/07/17 06:14:03;;;;;;;6.93;6.13;;;;;;;23.32;46.02;157365.25;4990531;28;20449;-76
2022/07/17 06:16:30;;;;;;;6.63;6.10;;;;;;;23.48;45.34;157405.81;4992972;28;20507;-77
2022/07/17 06:18:57;;;;;;;7.10;6.43;;;;;;;23.49;45.01;157408.41;4991081;28;20472;-77
2022/07/17 06:21:23;;;;;;;7.23;6.63;;;;;;;23.38;46.98;157379.63;4991500;28;20457;-77
2022/07/17 06:23:50;;;;;;;8.60;6.53;;;;;;;23.48;46.00;157405.81;4975044;28;20530;-77
2022/07/17 06:26:17;;;;;;;6.97;6.37;;;;;;;23.71;46.21;157465.94;4974678;28;20940;-77
2022/07/17 06:28:45;;;;;;;5.77;5.27;;;;;;;23.79;43.86;157485.53;4992161;28;20469;-77
2022/07/17 06:31:12;;;;;;;5.90;5.40;;;;;;;23.89;43.58;157511.69;4992420;28;20832;-77
2022/07/17 06:33:39;;;;;;;6.37;5.87;;;;;;;24.03;43.26;157548.31;4990942;28;20445;-77
2022/07/17 06:36:06;;;;;;;5.53;5.03;;;;;;;24.46;42.28;157660.84;4992766;28;20438;-77
2022/07/17 06:38:33;;;;;;;6.53;5.80;;;;;;;24.57;42.68;157688.31;4975133;28;20549;-77
2022/07/17 06:41:00;;;;;;;5.87;5.37;;;;;;;24.57;42.80;157688.31;4974090;28;20458;-77
2022/07/17 06:43:27;;;;;;;6.67;6.07;;;;;;;24.81;42.06;157752.44;4991899;28;20438;-77
2022/07/17 06:45:55;;;;;;;5.63;5.23;;;;;;;24.99;41.61;157796.94;4990679;28;20543;-77
2022/07/17 06:48:22;;;;;;;6.43;5.93;;;;;;;25.30;41.28;157879.38;4991102;28;20536;-77
2022/07/17 06:50:49;;;;;;;6.27;5.27;;;;;;;25.33;40.71;157887.22;4992194;28;20433;-77
2022/07/17 06:53:16;;;;;;;5.93;5.47;;;;;;;25.14;41.10;157837.50;4992138;28;20859;-77
2022/07/17 06:55:42;;;;;;;5.23;4.80;;;;;;;25.07;40.76;157817.88;4991797;28;20461;-77
2022/07/17 06:58:09;;;;;;;5.60;4.70;;;;;;;25.10;39.81;157827.00;4992021;28;20441;-77
2022/07/17 07:00:36;;;;;;;5.57;5.17;;;;;;;25.01;41.80;157803.47;4991290;28;20485;-77
2022/07/17 07:03:04;;;;;;;6.13;5.63;;;;;;;25.17;41.35;157844.03;4991280;28;20972;-77
2022/07/17 07:05:31;;;;;;;6.63;6.00;;;;;;;25.02;41.92;157804.78;4990426;28;20549;-77
2022/07/17 07:07:57;;;;;;;6.10;5.63;;;;;;;25.19;41.48;157849.25;4974684;28;20789;-77
2022/07/17 07:10:24;;;;;;;5.80;5.30;;;;;;;25.22;41.55;157857.13;4974010;28;20484;-77
2022/07/17 07:12:51;;;;;;;5.53;5.03;;;;;;;25.32;40.40;157884.59;4991089;28;20437;-77
2022/07/17 07:15:18;;;;;;;6.87;6.20;;;;;;;24.90;40.84;157774.69;4991945;28;20572;-77
2022/07/17 07:17:47;;;;;;;5.50;5.10;;;;;;;25.06;40.92;157816.56;4990823;28;20508;-77
2022/07/17 07:20:15;;;;;;;5.83;5.33;;;;;;;25.01;40.75;157803.47;4973769;28;20517;-77
2022/07/17 07:22:42;;;;;;;4.93;4.40;;;;;;;25.34;40.23;157888.50;4974474;28;20452;-77
2022/07/17 07:25:12;;;;;;;6.47;5.73;;;;;;;25.23;40.16;157861.03;4974028;28;20548;-78
2022/07/17 07:27:40;;;;;;;5.67;5.23;;;;;;;25.30;40.06;157878.06;4990585;28;20941;-78
2022/07/17 07:30:09;;;;;;;4.70;4.40;;;;;;;25.59;38.99;157952.69;4994229;28;20537;-78
2022/07/17 07:33:00;;;;;;;6.10;5.60;;;;;;;26.02;39.02;158065.31;4991799;28;20434;-78
2022/07/17 07:35:29;;;;;;;5.57;5.17;;;;;;;26.43;37.92;158172.72;4990044;28;20548;-78
2022/07/17 07:37:56;;;;;;;5.87;5.33;;;;;;;26.26;37.93;158126.88;4974190;28;20438;-76
2022/07/17 07:40:22;;;;;;;5.60;5.20;;;;;;;26.10;37.66;158084.94;4991664;28;20575;-76
2022/07/17 07:42:49;;;;;;;6.20;5.70;;;;;;;26.13;38.10;158094.16;4991512;28;20528;-76
2022/07/17 07:45:16;;;;;;;6.63;6.13;;;;;;;26.11;38.58;158087.53;5002188;28;20551;-76
2022/07/17 07:47:44;;;;;;;5.67;5.10;;;;;;;25.96;39.65;158049.59;4990333;28;20436;-76
2022/07/17 07:50:12;;;;;;;6.07;5.13;;;;;;;26.74;38.96;158252.59;5008460;28;20484;-76
2022/07/17 07:52:40;;;;;;;5.50;4.70;;;;;;;27.04;37.54;158329.94;4996308;28;20527;-78
2022/07/17 07:55:10;;;;;;;6.23;5.63;;;;;;;26.70;36.57;158242.13;4977061;28;20458;-78
2022/07/17 07:57:39;;;;;;;5.53;5.13;;;;;;;26.50;37.38;158191.03;4977593;28;20519;-76
2022/07/17 08:00:06;;;;;;;5.40;5.00;;;;;;;26.96;37.08;158308.97;4993090;28;20469;-76
2022/07/17 08:02:39;;;;;;;5.80;4.73;;;;;;;27.40;36.35;158424.38;4977483;28;20484;-78
2022/07/17 08:05:07;;;;;;;5.00;4.60;;;;;;;27.28;36.68;158392.84;4977455;28;20455;-78
2022/07/17 08:07:36;;;;;;;5.70;5.30;;;;;;;26.91;36.86;158295.88;4993648;28;20446;-79
2022/07/17 08:10:05;;;;;;;5.07;4.63;;;;;;;27.37;35.63;158415.13;4992919;28;20787;-79
2022/07/17 08:12:32;;;;;;;4.87;4.47;;;;;;;27.05;36.69;158333.91;4977518;28;20434;-78
2022/07/17 08:14:58;;;;;;;5.00;4.50;;;;;;;26.53;37.95;158197.56;4994553;28;20492;-78
2022/07/17 08:17:25;;;;;;;5.20;4.70;;;;;;;27.35;36.79;158409.91;4977158;28;20442;-79
2022/07/17 08:19:52;;;;;;;5.20;4.80;;;;;;;27.41;36.56;158425.63;4994873;28;20520;-79
2022/07/17 08:22:18;;;;;;;5.57;5.17;;;;;;;27.36;35.49;158413.81;4994406;28;20468;-79
2022/07/17 08:24:45;;;;;;;5.43;4.87;;;;;;;27.13;36.72;158354.88;4976900;28;20571;-78
2022/07/17 08:27:13;;;;;;;4.97;4.57;;;;;;;27.57;36.69;158468.91;4976039;28;20552;-79
2022/07/17 08:29:40;;;;;;;5.40;4.27;;;;;;;27.93;35.75;158560.66;4977365;28;20442;-78
2022/07/17 08:32:07;;;;;;;5.20;4.80;;;;;;;28.15;34.53;158618.38;4995055;28;20418;-79
2022/07/17 08:34:33;;;;;;;5.03;4.27;;;;;;;27.89;35.11;158551.47;4976814;28;20508;-79
2022/07/17 08:37:00;;;;;;;4.50;4.10;;;;;;;28.02;35.27;158584.28;4994040;28;20449;-79
2022/07/17 08:39:27;;;;;;;4.20;3.90;;;;;;;28.04;34.57;158589.56;4993557;28;20513;-79
2022/07/17 08:41:54;;;;;;;5.00;4.47;;;;;;;27.71;34.10;158505.59;4993530;28;20499;-78
2022/07/17 08:44:22;;;;;;;4.43;4.13;;;;;;;27.40;35.38;158424.38;4993316;28;20450;-79
2022/07/17 08:46:49;;;;;;;5.37;4.97;;;;;;;27.84;35.11;158537.03;4998109;28;20562;-79
2022/07/17 08:49:17;;;;;;;4.80;4.40;;;;;;;28.05;34.59;158593.47;5006699;28;20864;-79
2022/07/17 08:51:43;;;;;;;4.60;4.27;;;;;;;28.13;34.85;158614.44;4981533;28;20456;-78
2022/07/17 08:54:10;;;;;;;4.67;4.30;;;;;;;28.02;34.18;158584.28;4993788;28;20600;-78
2022/07/17 08:56:37;;;;;;;4.77;4.37;;;;;;;27.89;34.67;158550.16;4996385;28;20449;-79
2022/07/17 08:59:04;;;;;;;5.20;4.80;;;;;;;27.72;35.26;158508.19;4991123;28;20470;-79
2022/07/17 09:01:32;;;;;;;5.40;4.50;;;;;;;27.85;34.80;158539.69;4982257;28;20472;-79
2022/07/17 09:04:05;;;;;;;5.13;4.47;;;;;;;28.23;34.46;158640.66;4975060;28;20445;-79
2022/07/17 09:06:32;;;;;;;4.07;3.77;;;;;;;28.39;33.29;158681.31;4974469;28;20875;-77
2022/07/17 09:09:04;;;;;;;4.13;3.83;;;;;;;28.27;33.92;158649.84;4976318;28;20480;-79
2022/07/17 09:11:31;;;;;;;4.97;4.57;;;;;;;28.26;33.97;158647.22;4991892;28;20441;-79
2022/07/17 09:13:58;;;;;;;4.37;4.07;;;;;;;27.51;34.67;158453.16;4989822;28;20449;-78
2022/07/17 09:16:24;;;;;;;5.00;4.60;;;;;;;27.74;34.21;158513.47;4993026;28;20452;-78
2022/07/17 09:18:54;;;;;;;4.60;4.20;;;;;;;27.38;33.83;158419.03;4992055;28;20453;-76
2022/07/17 09:21:23;;;;;;;4.33;4.03;;;;;;;27.51;32.77;158453.16;4972300;28;20920;-76
2022/07/17 09:23:58;;;;;;;5.07;4.77;;;;;;;27.45;34.44;158437.47;4976244;28;20552;-78
2022/07/17 09:26:26;;;;;;;4.50;4.20;;;;;;;27.49;34.17;158447.94;4975855;28;20905;-78
2022/07/17 09:28:53;;;;;;;4.80;4.40;;;;;;;26.63;35.00;158225.09;4995167;28;20549;-76
2022/07/17 09:31:25;;;;;;;4.20;3.90;;;;;;;26.50;36.10;158191.03;4972768;28;20442;-77
2022/07/17 09:33:54;;;;;;;4.10;3.80;;;;;;;26.54;33.93;158201.53;4992861;28;20434;-77
2022/07/17 09:36:20;;;;;;;5.00;4.60;;;;;;;27.11;33.77;158348.31;4993052;28;20796;-77
2022/07/17 09:38:47;;;;;;;4.30;3.80;;;;;;;27.44;34.16;158434.81;4974767;28;20907;-77
2022/07/17 09:41:16;;;;;;;3.70;3.40;;;;;;;27.19;34.63;158370.56;4993024;28;20854;-78
2022/07/17 09:43:45;;;;;;;4.10;3.80;;;;;;;27.19;32.79;158369.28;4992311;28;20469;-77
2022/07/17 09:46:15;;;;;;;4.10;3.70;;;;;;;26.99;33.78;158316.84;4992895;28;20917;-77
2022/07/17 09:48:47;;;;;;;3.93;3.63;;;;;;;27.15;32.42;158358.78;4975049;28;20465;-77
2022/07/17 09:51:17;;;;;;;3.87;3.57;;;;;;;26.83;32.14;158274.91;4976076;28;20500;-77
2022/07/17 09:53:45;;;;;;;3.90;3.60;;;;;;;26.82;33.48;158272.31;4992937;28;20445;-77
2022/07/17 09:56:12;;;;;;;3.77;3.40;;;;;;;26.72;34.47;158247.34;4991295;28;20546;-77
2022/07/17 09:58:40;;;;;;;3.77;3.47;;;;;;;26.67;33.12;158232.94;4992929;28;20438;-77
2022/07/17 10:01:07;;;;;;;3.37;3.17;;;;;;;27.25;32.13;158384.97;4975789;28;20487;-77
2022/07/17 10:03:33;;;;;;;4.00;3.70;;;;;;;27.57;32.62;158467.56;4975347;28;20609;-77
2022/07/17 10:06:01;;;;;;;3.70;3.40;;;;;;;27.25;32.69;158383.66;4992722;28;20474;-77
2022/07/17 10:08:30;;;;;;;3.80;3.50;;;;;;;27.20;32.19;158371.88;4992455;28;20552;-77
2022/07/17 10:10:57;;;;;;;3.63;3.33;;;;;;;27.11;32.27;158349.59;4993082;28;20780;-77
2022/07/17 10:13:24;;;;;;;3.90;3.60;;;;;;;27.18;32.09;158366.63;4975125;28;20977;-77
2022/07/17 10:15:51;;;;;;;4.40;4.10;;;;;;;27.29;32.58;158395.47;4992476;28;20485;-77
2022/07/17 10:18:21;;;;;;;4.03;3.73;;;;;;;26.74;33.83;158252.59;4992873;28;20536;-77
2022/07/17 10:20:48;;;;;;;3.73;3.20;;;;;;;26.41;33.75;158167.47;4992885;28;20481;-77
2022/07/17 10:23:16;;;;;;;4.13;3.80;;;;;;;26.77;32.96;158259.19;4991056;28;20533;-76
2022/07/17 10:25:44;;;;;;;3.93;3.63;;;;;;;26.69;33.36;158238.22;4998081;28;20618;-76
2022/07/17 10:28:12;;;;;;;4.00;3.70;;;;;;;26.79;32.48;158264.47;4990154;28;20575;-76
2022/07/17 10:30:42;;;;;;;3.93;3.50;;;;;;;26.93;32.12;158301.09;4992818;28;20819;-76
2022/07/17 10:33:09;;;;;;;3.90;3.33;;;;;;;26.53;31.45;158198.91;4991200;28;20430;-77
2022/07/17 10:35:44;;;;;;;3.70;3.40;;;;;;;26.69;31.79;158238.22;4992145;28;20545;-77
2022/07/17 10:38:12;;;;;;;3.73;3.33;;;;;;;26.90;31.95;158294.56;4991168;28;20440;-77
2022/07/17 10:40:39;;;;;;;3.77;3.17;;;;;;;26.75;30.56;158253.91;4991246;28;20921;-77
2022/07/17 10:43:09;;;;;;;3.47;3.20;;;;;;;26.62;31.20;158221.16;4992054;28;20437;-77
2022/07/17 10:45:39;;;;;;;3.80;3.50;;;;;;;26.63;31.49;158222.50;4974134;28;20453;-77
2022/07/17 10:48:07;;;;;;;3.67;3.37;;;;;;;26.22;31.71;158117.72;4974604;28;20429;-76
2022/07/17 10:50:36;;;;;;;3.37;3.10;;;;;;;26.36;32.15;158154.41;4991099;28;20445;-77
2022/07/17 10:53:06;;;;;;;3.83;3.53;;;;;;;26.11;31.96;158088.84;4991789;28;20448;-77
2022/07/17 10:55:33;;;;;;;3.50;3.30;;;;;;;26.27;31.84;158129.47;4993482;28;20453;-77
2022/07/17 10:58:00;;;;;;;4.03;3.63;;;;;;;26.31;32.42;158141.31;4994397;28;20445;-77
2022/07/17 11:00:28;;;;;;;3.57;3.27;;;;;;;26.75;32.56;158255.22;4991930;28;20770;-77
2022/07/17 11:02:55;;;;;;;3.90;3.60;;;;;;;27.32;32.45;158402.03;4978949;28;20452;-77
2022/07/17 11:05:22;;;;;;;4.20;3.80;;;;;;;27.27;32.13;158390.19;4980111;28;20442;-77
2022/07/17 11:07:55;;;;;;;3.90;3.60;;;;;;;27.29;32.54;158395.47;4990456;28;20544;-77
2022/07/17 11:10:22;;;;;;;4.87;3.53;;;;;;;27.28;31.94;158392.84;4990721;28;20504;-77
2022/07/17 11:12:49;;;;;;;4.20;3.77;;;;;;;26.77;32.18;158259.19;4990475;28;20524;-76
2022/07/17 11:15:16;;;;;;;3.97;3.67;;;;;;;26.65;32.12;158227.72;4991930;28;20512;-77
2022/07/17 11:17:48;;;;;;;3.33;3.03;;;;;;;26.39;32.89;158162.25;4973845;28;20937;-76
2022/07/17 11:20:16;;;;;;;3.57;3.30;;;;;;;26.25;32.56;158125.56;4991722;28;20473;-77
2022/07/17 11:22:44;;;;;;;3.20;2.90;;;;;;;26.56;32.93;158206.75;4990939;28;20900;-76
2022/07/17 11:25:12;;;;;;;4.77;3.67;;;;;;;26.97;31.55;158311.63;4990433;28;20446;-77